Date,TemperatureHighF,TemperatureAvgF,TemperatureLowF,DewpointHighF,DewpointAvgF,DewpointLowF,HumidityHigh,HumidityAvg,HumidityLow,PressureMaxIn,PressureMinIn,WindSpeedMaxMPH,WindSpeedAvgMPH,GustSpeedMaxMPH,PrecipitationSumIn
2013-1-1,47.7,44.8,41.5,46.0,39.7,27.7,97,83,52,30.12,29.92,4,1,6,0.09
2013-1-2,46.2,42.8,37.4,45.3,40.6,35.6,98,92,77,30.22,29.94,8,2,11,0.24
2013-1-3,42.1,37.1,25.2,38.3,34.9,23.7,97,92,83,30.29,30.17,4,1,4,0.00
2013-1-4,49.1,35.2,20.8,31.5,22.5,18.5,96,65,31,30.33,30.20,11,2,13,0.00
2013-1-5,52.0,35.2,21.9,33.1,24.4,19.2,90,69,29,30.40,30.27,7,2,9,0.00
2013-1-6,53.1,41.3,32.7,39.4,35.1,28.2,92,80,52,30.27,30.06,5,1,5,0.00
2013-1-7,52.7,35.6,25.7,37.8,27.6,23.0,95,76,38,30.47,30.20,10,2,10,0.00
2013-1-8,54.3,36.7,22.8,38.7,30.8,20.7,94,81,45,30.50,30.38,4,1,4,0.00
2013-1-9,68.0,46.8,30.4,52.3,40.7,28.8,95,81,53,30.46,30.34,7,1,8,0.00
2013-1-10,65.1,48.8,38.1,49.3,40.9,34.2,96,77,44,30.55,30.43,8,2,8,0.00
2013-1-11,48.4,44.8,38.8,47.8,41.9,34.7,98,90,66,30.47,30.16,4,1,5,0.20
2013-1-12,71.1,55.9,48.6,64.0,53.8,48.0,99,93,73,30.17,30.09,4,1,4,0.01
2013-1-13,75.4,60.5,50.5,65.5,56.6,49.5,99,88,60,30.14,30.03,6,1,11,0.00
2013-1-14,64.9,59.9,51.3,61.9,58.4,50.4,99,95,84,30.18,30.08,13,1,15,0.01
2013-1-15,51.1,44.2,42.4,50.2,43.4,41.7,99,97,95,30.27,30.09,13,3,15,0.01
2013-1-16,48.7,44.6,41.0,48.6,44.3,40.8,99,99,97,30.11,29.97,9,2,10,0.21
2013-1-17,49.6,48.6,43.9,49.5,48.3,43.2,99,99,97,30.07,29.93,14,2,16,0.67
2013-1-18,45.9,36.4,25.3,35.6,27.3,22.6,92,72,42,30.56,30.45,13,2,13,0.54
2013-1-19,54.7,34.3,21.2,39.4,26.3,19.6,95,77,32,30.53,30.17,5,1,8,0.00
2013-1-20,63.3,43.0,29.3,37.4,30.4,25.2,93,68,24,30.17,29.98,18,2,18,0.00
2013-1-21,60.3,40.9,23.9,37.6,24.8,9.7,94,60,23,30.12,29.85,9,2,11,0.00
2013-1-22,37.4,30.6,17.4,36.0,5.6,-16.8,72,35,10,30.32,29.98,12,4,15,0.00
2013-1-23,41.4,26.4,13.3,19.6,10.5,-0.2,86,56,21,30.40,30.07,10,2,11,0.00
2013-1-24,36.9,29.0,17.4,24.6,10.7,-5.1,79,50,18,30.56,29.97,19,4,19,0.00
2013-1-25,26.6,22.4,15.4,24.3,15.8,6.6,91,76,45,30.57,30.13,3,1,4,0.00
2013-1-26,36.9,29.5,23.4,33.6,27.4,21.9,95,92,86,30.44,30.11,3,0,4,0.04
2013-1-27,41.7,29.0,17.2,31.1,23.3,15.6,95,81,52,30.63,30.43,4,1,6,0.00
2013-1-28,51.8,41.4,26.4,45.7,35.8,23.5,95,82,59,30.53,30.22,4,1,7,0.02
2013-1-29,73.8,56.7,42.1,54.5,49.1,40.8,97,78,47,30.24,30.06,8,2,8,0.01
2013-1-30,72.3,65.9,52.3,63.3,60.5,49.5,94,83,71,30.07,29.37,13,4,17,0.28
2013-1-31,62.6,45.8,28.8,59.4,27.9,14.4,94,54,25,30.03,29.42,22,6,22,0.40
2013-2-1,40.5,31.4,21.2,28.4,10.6,-8.1,84,48,14,30.43,29.88,22,5,26,0.00
2013-2-2,43.2,30.6,14.4,31.3,13.0,2.1,85,53,18,30.43,30.04,11,2,15,0.00
2013-2-3,49.8,38.5,28.4,34.7,26.7,20.7,92,66,34,30.04,29.85,11,3,12,0.00
2013-2-4,50.0,35.9,20.7,28.2,20.5,14.2,89,58,26,30.17,30.01,8,2,11,0.00
2013-2-5,60.3,43.3,30.2,33.4,29.5,24.8,86,61,29,30.01,29.87,11,2,11,0.00
2013-2-6,62.2,39.6,25.2,39.9,24.3,12.2,93,64,15,30.32,29.99,15,2,15,0.00
2013-2-7,46.8,39.3,29.3,40.5,33.9,24.6,94,81,61,30.37,30.04,8,2,9,0.35
2013-2-8,55.2,44.8,37.8,44.2,38.0,26.8,96,79,47,30.05,29.81,20,5,20,0.76
2013-2-9,53.4,36.2,23.4,30.7,20.0,5.2,92,60,15,30.39,30.05,12,3,15,0.00
2013-2-10,53.8,35.5,19.0,35.2,21.9,14.2,91,64,21,30.52,30.22,5,2,8,0.05
2013-2-11,60.3,51.6,39.9,59.7,50.1,35.2,98,95,83,30.22,29.90,5,1,10,0.12
2013-2-12,62.4,50.7,37.0,53.1,34.5,18.5,97,60,19,30.08,29.92,11,2,12,0.00
2013-2-13,46.6,44.8,40.6,45.7,42.4,35.6,97,92,76,29.97,29.62,10,2,21,0.30
2013-2-14,53.4,38.7,27.9,38.5,30.5,25.5,97,75,39,30.09,29.83,7,2,8,0.00
2013-2-15,64.2,41.2,24.4,46.9,28.2,22.6,95,68,21,30.11,29.92,15,2,16,0.00
2013-2-16,44.8,36.0,31.1,33.6,31.7,29.1,95,85,61,29.99,29.85,11,2,11,0.34
2013-2-17,37.6,28.5,17.1,28.8,12.7,0.5,91,56,22,30.31,29.93,19,2,25,0.00
2013-2-18,53.1,31.3,14.0,26.1,15.7,6.3,90,61,16,30.44,30.26,7,2,8,0.00
2013-2-19,49.6,39.2,26.6,48.7,36.0,22.6,97,89,63,30.26,29.85,7,2,14,0.18
2013-2-20,53.4,39.1,28.2,53.4,17.9,-2.4,98,49,10,30.17,29.97,11,3,18,0.00
2013-2-21,53.6,37.6,20.3,27.7,17.3,5.0,86,50,14,30.29,30.12,12,2,15,0.00
2013-2-22,41.0,35.8,31.8,34.2,30.0,20.7,94,80,44,30.37,30.16,4,2,8,0.05
2013-2-23,43.3,39.6,35.8,41.9,38.4,34.2,97,95,93,30.16,29.82,5,2,8,0.30
2013-2-24,63.3,46.2,30.9,47.7,34.2,18.5,99,71,18,30.06,29.80,11,2,11,0.02
2013-2-25,42.6,35.3,28.0,30.9,23.4,19.6,88,64,40,30.25,30.06,11,2,16,0.00
2013-2-26,53.4,42.5,29.1,52.9,39.4,25.0,99,89,67,30.18,29.56,15,2,15,0.56
2013-2-27,61.2,47.8,38.3,43.7,38.3,30.2,99,75,31,29.78,29.62,12,3,14,0.01
2013-2-28,51.4,41.4,30.6,40.8,29.5,22.8,95,65,34,29.87,29.70,14,3,15,0.00
2013-3-1,51.1,39.1,25.0,33.6,26.3,22.3,91,62,36,29.92,29.84,9,3,15,0.00
2013-3-2,48.4,38.5,28.6,32.4,24.1,17.4,88,58,34,29.94,29.82,11,3,13,0.00
2013-3-3,48.2,36.0,28.2,19.8,17.0,13.5,64,47,26,30.00,29.84,13,4,16,0.00
2013-3-4,52.2,34.9,23.7,52.2,12.0,-3.8,76,44,10,30.12,29.99,12,3,19,0.00
2013-3-5,50.0,41.6,30.9,43.0,35.6,26.6,97,81,42,30.09,29.58,7,1,8,0.12
2013-3-6,46.6,40.8,35.4,40.5,32.1,26.6,97,73,53,30.04,29.52,27,8,30,0.06
2013-3-7,51.4,41.2,30.9,35.2,27.0,22.6,91,58,37,30.33,30.04,15,4,19,0.99
2013-3-8,56.7,42.3,23.5,27.5,22.2,15.8,92,49,20,30.37,30.15,15,4,22,0.38
2013-3-9,64.4,42.4,26.4,32.9,23.6,8.1,88,57,11,30.35,30.23,8,2,11,0.39
2013-3-10,69.4,45.2,25.5,69.3,27.6,6.4,91,53,10,30.34,30.19,8,2,8,0.00
2013-3-11,71.8,51.3,31.3,51.6,40.3,26.2,88,68,41,30.26,29.93,7,2,11,0.00
2013-3-12,70.5,60.2,48.0,64.2,50.9,31.3,99,74,43,29.96,29.71,15,3,15,0.71
2013-3-13,59.0,44.5,28.8,37.8,24.0,13.1,90,50,18,30.15,29.94,16,5,21,0.50
2013-3-14,55.2,38.5,25.5,21.2,15.0,-1.5,74,44,11,30.25,30.11,15,4,16,0.00
2013-3-15,65.5,43.8,21.9,34.2,24.6,17.6,87,54,20,30.20,29.90,10,2,15,0.00
2013-3-16,78.4,57.3,36.1,50.0,40.5,31.3,88,59,26,29.90,29.61,11,2,11,0.00
2013-3-17,54.9,47.8,39.7,50.7,41.3,36.1,93,79,63,30.21,29.83,11,3,15,0.00
2013-3-18,41.7,39.4,37.2,40.5,37.9,36.0,97,94,89,30.22,29.86,10,2,10,0.17
2013-3-19,68.7,51.3,39.2,68.4,37.1,0.7,98,56,10,30.04,29.82,16,4,21,0.00
2013-3-20,59.4,43.5,30.0,59.4,22.9,-2.9,78,34,10,30.12,29.81,9,3,11,0.63
2013-3-21,46.6,38.4,30.7,34.0,16.1,2.1,80,44,18,29.99,29.74,15,5,21,0.00
2013-3-22,53.6,35.7,17.2,53.4,15.3,-4.0,80,41,10,30.10,29.96,11,3,13,0.00
2013-3-23,56.7,40.6,27.0,32.9,23.9,10.6,86,58,16,30.07,29.91,5,1,7,3.50
2013-3-24,40.8,36.4,28.9,38.5,33.9,25.2,95,91,82,29.96,29.58,10,2,15,0.76
2013-3-25,50.2,39.9,34.2,40.3,29.5,18.9,97,71,33,29.81,29.56,23,4,23,0.02
2013-3-26,50.5,41.3,26.6,30.0,24.6,22.5,87,53,37,30.12,29.81,13,4,14,0.00
2013-3-27,53.6,41.9,29.7,25.9,21.3,13.3,71,47,21,30.24,30.11,19,5,19,0.00
2013-3-28,58.6,42.6,28.8,27.9,20.9,12.9,79,48,17,30.31,30.14,14,4,17,0.00
2013-3-29,62.4,42.4,23.7,34.3,21.5,9.0,88,53,12,30.35,30.17,11,2,11,0.00
2013-3-30,68.4,48.6,29.7,38.7,27.5,12.4,88,54,12,30.26,30.07,8,1,8,0.00
2013-3-31,68.2,54.3,43.3,57.4,48.9,36.3,97,83,58,30.09,29.79,5,1,10,0.48
2013-4-1,73.9,58.6,48.4,55.4,44.3,28.8,99,67,20,29.99,29.80,15,3,15,0.04
2013-4-2,61.9,45.4,29.1,61.9,26.8,2.7,92,51,10,30.15,29.99,15,3,15,0.00
2013-4-3,61.3,44.6,27.7,61.3,25.5,1.2,86,47,10,30.30,30.13,9,2,11,0.00
2013-4-4,51.1,41.8,36.5,38.1,29.3,18.0,95,65,33,30.37,29.93,14,3,14,0.53
2013-4-5,66.6,48.0,36.0,48.4,39.7,31.6,96,77,31,30.01,29.86,9,3,12,0.05
2013-4-6,66.4,48.8,33.3,38.7,27.2,8.2,95,55,13,30.27,30.00,12,3,12,0.00
2013-4-7,75.2,55.7,31.6,41.4,35.4,28.8,92,54,20,30.27,30.09,9,2,10,0.00
2013-4-8,83.3,64.0,45.3,55.9,47.5,41.0,94,61,25,30.15,30.03,8,2,9,0.00
2013-4-9,88.2,69.5,50.9,59.5,51.6,44.4,95,60,22,30.17,30.04,14,2,14,0.00
2013-4-10,90.5,71.9,54.0,61.9,54.4,47.5,94,61,23,30.09,29.92,7,2,11,0.00
2013-4-11,83.5,70.8,60.8,65.1,58.3,53.2,89,67,36,29.99,29.78,9,2,10,0.00
2013-4-12,85.6,72.5,60.8,71.8,61.1,36.1,99,71,32,29.80,29.58,9,3,11,0.41
2013-4-13,76.5,59.6,41.4,48.2,37.8,26.2,92,52,16,30.00,29.75,9,2,11,0.00
2013-4-14,83.3,61.2,39.0,83.3,40.2,19.6,96,54,10,30.10,30.00,5,2,8,0.00
2013-4-15,72.1,63.2,55.9,57.6,55.2,50.7,95,77,52,30.22,30.02,14,2,60,0.09
2013-4-16,79.0,64.4,54.5,61.3,57.3,51.4,94,80,45,30.30,30.19,7,2,7,0.05
2013-4-17,82.2,66.4,52.2,65.1,58.5,50.7,97,78,48,30.22,30.10,8,1,8,0.00
2013-4-18,82.9,69.4,58.1,65.7,58.7,51.4,95,72,35,30.19,30.03,7,2,11,0.00
2013-4-19,82.0,70.2,64.4,68.2,64.0,59.7,98,82,55,30.05,29.68,23,2,23,0.76
2013-4-20,66.0,55.1,42.8,64.2,38.5,23.5,99,60,20,30.25,29.80,15,3,15,0.05
2013-4-21,63.3,50.9,37.4,39.7,35.7,30.2,94,59,32,30.50,30.28,12,3,16,0.05
2013-4-22,63.3,49.9,36.0,44.6,37.2,33.1,91,64,35,30.49,30.27,11,4,14,0.01
2013-4-23,69.1,54.3,45.3,50.4,45.1,42.1,90,73,42,30.28,30.11,9,3,11,0.01
2013-4-24,78.8,60.7,41.4,57.7,50.0,39.6,96,71,39,30.14,29.95,9,2,13,0.00
2013-4-25,72.3,59.1,43.3,56.3,42.2,29.7,90,58,21,30.27,29.99,12,3,15,0.00
2013-4-26,73.2,55.1,36.7,48.6,37.2,22.8,95,61,16,30.42,30.27,10,2,11,0.00
2013-4-27,74.5,59.7,46.9,53.2,46.5,34.3,93,68,24,30.38,30.25,5,1,7,0.00
2013-4-28,60.3,55.9,52.2,56.1,53.2,49.6,98,91,80,30.26,30.10,4,1,4,0.30
2013-4-29,72.7,61.1,53.6,64.8,58.7,53.1,99,93,69,30.09,29.96,4,1,4,0.39
2013-4-30,67.3,59.4,52.0,60.6,56.5,49.5,99,90,73,30.18,30.00,8,2,10,0.32
2013-5-1,61.9,58.8,54.3,59.5,56.5,52.9,96,92,89,30.33,30.17,9,3,14,0.02
2013-5-2,63.1,57.9,51.4,57.6,54.6,50.0,95,89,81,30.34,30.25,10,2,10,0.00
2013-5-3,69.8,56.0,43.9,55.8,47.6,37.8,98,76,38,30.28,30.17,11,2,11,0.00
2013-5-4,61.7,54.2,48.7,52.9,47.9,42.8,88,79,69,30.22,30.09,11,3,13,0.00
2013-5-5,59.4,54.3,48.2,54.7,49.9,44.8,92,85,79,30.11,29.99,11,4,14,0.30
2013-5-6,65.7,59.3,55.6,63.0,58.0,53.6,98,95,90,30.02,29.84,9,3,17,1.90
2013-5-7,68.4,58.3,50.5,63.1,56.3,49.5,99,93,78,29.94,29.85,4,1,6,0.19
2013-5-8,69.4,59.3,48.7,69.4,56.4,47.8,99,91,67,30.00,29.91,4,1,8,0.01
2013-5-9,82.9,64.7,51.6,63.9,55.1,49.8,99,76,33,30.05,29.97,10,1,10,0.00
2013-5-10,86.0,68.7,52.2,67.1,59.1,50.7,97,75,39,30.06,29.93,9,1,9,0.00
2013-5-11,83.7,70.7,64.0,67.6,63.0,58.5,95,79,47,29.95,29.78,8,2,11,0.21
2013-5-12,73.2,63.5,46.8,99.9,48.7,28.6,98,64,10,30.03,29.79,11,3,13,0.01
2013-5-13,66.7,53.0,40.1,47.1,36.3,23.5,94,61,20,30.18,30.03,11,2,11,0.00
2013-5-14,72.9,54.1,36.1,49.6,39.3,27.0,95,65,20,30.25,30.07,8,2,10,0.00
2013-5-15,88.7,66.3,46.8,64.9,54.6,43.9,91,69,36,30.06,29.88,7,1,8,0.00
2013-5-16,86.4,71.3,56.3,66.4,59.6,53.8,94,70,35,29.97,29.88,8,1,11,0.00
2013-5-17,88.0,72.3,57.0,68.5,61.7,54.7,95,74,37,30.08,29.97,7,1,7,0.00
2013-5-18,77.7,68.0,59.0,70.0,64.0,57.2,96,88,71,30.17,30.07,4,1,7,0.65
2013-5-19,75.4,67.5,62.4,73.0,66.4,61.9,99,96,86,30.15,30.06,4,1,7,0.63
2013-5-20,79.7,69.2,44.1,73.4,67.7,43.5,99,95,73,30.12,29.79,10,1,10,0.46
2013-5-21,86.4,73.2,65.1,75.0,69.6,64.8,99,89,63,30.05,29.93,5,1,7,0.00
2013-5-22,85.8,73.7,36.1,72.1,68.9,26.6,99,86,56,30.05,29.90,6,1,7,0.01
2013-5-23,83.1,71.6,41.9,71.8,67.2,41.2,99,87,58,29.96,29.67,7,1,8,0.11
2013-5-24,70.2,63.3,41.2,66.6,50.9,31.3,99,69,27,30.19,29.69,15,4,28,0.01
2013-5-25,75.6,55.7,39.4,49.5,38.3,21.7,96,62,14,30.26,30.12,11,2,15,0.01
2013-5-26,76.6,57.8,42.6,55.4,45.0,33.6,96,70,23,30.27,30.16,8,1,8,0.00
2013-5-27,82.4,63.0,46.2,60.8,52.5,44.6,97,73,32,30.28,30.14,7,1,8,0.00
2013-5-28,86.4,69.6,54.7,68.9,61.1,52.3,96,77,50,30.25,30.13,6,1,8,0.00
2013-5-29,87.3,71.8,58.1,66.9,62.2,56.3,97,75,43,30.23,30.15,8,1,9,0.00
2013-5-30,88.0,72.1,57.9,69.8,62.9,56.1,98,76,41,30.27,30.17,7,1,9,0.00
2013-5-31,88.5,73.2,60.3,71.2,64.9,58.8,98,78,45,30.22,30.10,8,1,8,0.00
2013-6-1,89.6,76.1,65.3,70.7,65.9,60.8,99,74,39,30.14,30.01,7,1,12,0.00
2013-6-2,87.1,75.8,66.4,70.9,67.4,63.3,96,77,53,30.05,29.90,7,2,11,0.59
2013-6-3,83.7,73.0,64.2,74.1,69.8,63.7,99,91,67,29.96,29.83,8,1,8,0.33
2013-6-4,79.0,68.6,61.2,68.7,64.2,60.8,99,87,60,30.10,29.94,5,1,7,0.01
2013-6-5,82.4,69.7,59.4,68.0,63.0,59.0,99,81,50,30.15,30.02,9,1,9,0.00
2013-6-6,73.6,69.0,62.8,72.1,66.2,57.2,99,91,74,30.05,29.81,8,1,8,0.58
2013-6-7,73.2,70.0,68.2,72.9,69.6,67.8,99,98,96,29.85,29.53,11,2,13,1.77
2013-6-8,84.9,72.4,64.9,70.0,67.4,63.9,99,86,53,30.09,29.81,6,1,10,0.02
2013-6-9,88.0,74.2,62.6,76.1,69.5,62.2,99,86,57,30.16,30.05,24,1,24,1.16
2013-6-10,81.9,73.4,69.4,79.2,72.6,68.9,99,97,89,30.10,29.89,5,1,7,0.56
2013-6-11,85.6,75.0,65.8,70.7,67.0,62.2,99,79,47,29.95,29.89,9,2,12,0.00
2013-6-12,89.8,75.7,60.8,75.4,68.5,60.1,99,81,51,29.97,29.86,9,1,9,0.00
2013-6-13,93.7,77.0,66.0,78.8,70.5,60.3,99,84,41,29.87,29.59,27,2,35,0.17
2013-6-14,80.8,69.3,58.8,66.9,59.3,54.3,98,74,42,30.01,29.73,98,3,98,0.00
2013-6-15,86.0,71.2,55.9,66.2,60.3,37.8,99,72,37,30.12,30.01,8,1,8,0.76
2013-6-16,87.3,73.7,61.5,71.2,65.8,59.2,96,78,54,30.11,29.99,7,1,10,0.00
2013-6-17,84.0,75.6,69.8,75.6,70.1,66.2,93,83,66,30.03,29.93,4,1,6,0.00
2013-6-18,82.8,73.4,68.5,75.0,70.6,68.0,99,91,73,29.97,29.76,8,1,11,0.45
2013-6-19,81.0,71.2,61.7,71.6,66.3,61.3,99,86,62,30.13,29.88,8,1,8,0.01
2013-6-20,83.7,71.1,61.9,67.1,62.8,57.4,99,78,45,30.25,30.13,7,1,9,0.00
2013-6-21,84.6,68.7,54.5,65.1,57.6,49.8,97,72,34,30.27,30.19,8,1,10,0.00
2013-6-22,84.7,73.6,64.2,72.0,68.5,62.2,96,85,59,30.22,30.12,8,2,9,0.00
2013-6-23,87.1,75.3,66.4,76.6,71.3,66.0,99,88,64,30.22,30.12,5,1,5,0.05
2013-6-24,88.3,76.7,68.2,76.6,71.9,67.3,99,86,63,30.21,30.08,4,1,7,0.00
2013-6-25,92.5,77.6,68.4,76.1,71.1,67.8,99,82,50,30.12,30.00,7,1,8,0.00
2013-6-26,92.3,76.7,68.5,76.3,70.9,65.3,99,84,51,30.04,29.88,12,1,12,0.57
2013-6-27,89.1,76.4,66.6,77.7,72.1,66.2,99,88,60,29.93,29.70,8,1,49,0.64
2013-6-28,90.0,77.4,70.5,79.2,73.3,67.5,99,89,60,29.75,29.56,11,1,19,0.56
2013-6-29,85.1,75.4,69.4,76.6,72.4,69.1,99,91,70,29.73,29.60,4,1,5,0.24
2013-6-30,86.7,74.1,68.2,79.0,72.3,66.2,99,95,73,29.87,29.71,7,1,10,0.48
2013-7-1,83.1,74.6,69.3,76.6,72.6,68.9,99,94,79,30.00,29.85,4,1,7,0.65
2013-7-2,76.1,73.6,72.3,75.6,73.1,71.8,99,99,97,30.19,29.99,3,1,5,0.19
2013-7-3,86.0,76.3,72.5,79.9,74.8,69.8,99,95,77,30.25,30.15,6,1,7,0.91
2013-7-4,88.0,77.7,71.1,79.0,74.0,70.5,99,89,65,30.29,30.18,6,1,7,0.00
2013-7-5,88.7,78.1,69.8,78.6,73.7,69.4,99,88,65,30.28,30.16,5,1,9,0.00
2013-7-6,88.0,78.4,71.1,76.8,73.3,70.2,99,86,59,30.26,30.12,5,1,6,0.06
2013-7-7,88.3,76.7,66.7,78.3,72.6,66.2,99,88,66,30.19,30.06,4,1,10,0.04
2013-7-8,88.9,76.9,70.2,77.2,72.7,69.8,99,88,57,30.18,30.09,4,1,7,0.59
2013-7-9,88.9,76.9,70.0,79.5,74.0,69.6,99,91,69,30.16,30.06,4,1,6,0.00
2013-7-10,88.5,77.4,70.2,79.0,73.7,69.8,99,89,66,30.11,29.94,8,1,11,0.25
2013-7-11,81.0,74.3,71.2,77.4,73.4,70.5,99,97,86,29.98,29.88,11,1,11,0.38
2013-7-12,76.3,72.1,69.3,73.4,70.6,68.7,99,95,84,30.04,29.87,7,1,8,0.01
2013-7-13,79.5,73.2,68.9,77.9,72.2,68.5,99,97,87,30.19,30.01,5,1,7,0.25
2013-7-14,88.2,77.4,69.1,79.2,73.2,68.7,99,88,63,30.31,30.19,50,1,50,0.01
2013-7-15,90.7,76.9,-7.8,77.9,71.0,-8.9,99,84,52,30.33,30.25,4,1,6,0.00
2013-7-16,93.6,78.4,66.7,79.5,72.7,66.4,99,85,52,30.27,30.17,4,1,97,0.22
2013-7-17,92.1,81.4,72.7,83.3,76.2,72.3,99,86,55,30.22,30.11,3,1,6,0.00
2013-7-18,95.2,82.2,72.0,80.6,76.3,71.6,99,84,47,30.14,30.03,25,1,25,3.64
2013-7-19,91.2,80.9,72.5,79.9,75.2,72.1,99,83,60,30.09,29.98,5,1,8,3.09
2013-7-20,89.2,79.1,73.8,79.2,74.8,72.7,97,87,63,30.03,29.91,6,1,8,0.00
2013-7-21,119.5,78.1,72.7,99.9,74.3,71.4,99,89,67,29.99,29.90,50,1,50,0.00
2013-7-22,88.2,77.7,70.7,80.2,73.9,70.3,99,89,64,29.96,29.82,4,1,116,0.12
2013-7-23,89.8,79.5,72.1,75.2,72.3,67.6,99,81,51,29.84,29.72,9,2,11,0.00
2013-7-24,95.7,76.7,68.0,76.1,70.5,67.6,99,84,50,29.86,29.73,5,1,8,0.00
2013-7-25,79.9,72.4,64.6,70.7,67.9,63.5,98,86,68,30.04,29.84,8,2,9,0.12
2013-7-26,86.0,71.5,60.4,70.3,64.6,60.1,99,82,46,30.11,30.03,6,1,7,0.00
2013-7-27,86.2,71.7,62.8,74.8,68.7,62.4,99,91,54,30.06,29.94,5,1,12,0.12
2013-7-28,87.8,75.9,68.0,76.8,70.5,66.9,99,86,51,30.00,29.92,5,1,7,0.00
2013-7-29,86.9,74.8,65.5,71.2,66.6,57.6,99,79,38,30.16,29.99,5,1,8,0.01
2013-7-30,87.1,72.0,59.2,71.8,65.2,58.6,99,82,47,30.23,30.14,4,1,4,0.00
2013-7-31,83.5,73.7,68.4,76.1,71.2,68.0,99,93,72,30.15,30.00,5,0,5,0.11
2013-8-1,86.0,75.1,68.9,77.4,72.2,67.3,99,92,66,30.02,29.86,15,1,15,0.53
2013-8-2,87.8,74.8,64.6,74.7,68.7,63.3,99,84,45,30.02,29.91,5,1,5,0.04
2013-8-3,88.9,76.2,67.8,79.7,73.4,67.5,99,91,65,30.02,29.92,5,1,6,0.89
2013-8-4,85.6,76.2,64.4,74.1,65.7,54.1,99,72,35,30.04,29.94,8,2,9,0.00
2013-8-5,82.0,71.5,61.3,72.1,65.2,59.7,99,81,49,30.10,30.01,8,1,8,0.78
2013-8-6,81.3,72.2,65.3,73.8,68.5,64.4,99,89,65,30.16,30.00,6,1,11,0.18
2013-8-7,85.5,75.2,65.7,75.0,70.7,64.8,99,87,61,30.25,30.03,4,1,7,0.00
2013-8-8,89.2,76.8,67.6,77.2,71.7,67.3,99,86,54,30.27,30.00,5,1,6,0.00
2013-8-9,91.4,79.2,68.9,78.6,73.7,68.5,99,85,56,30.23,29.97,11,1,11,0.76
2013-8-10,91.4,77.5,72.7,78.1,73.8,72.0,99,90,55,30.10,30.01,6,1,53,1.72
2013-8-11,92.5,78.3,70.2,78.1,73.3,69.4,99,87,48,30.11,30.01,5,1,9,0.01
2013-8-12,91.8,79.3,69.3,76.5,72.2,64.0,99,82,41,30.06,29.94,8,1,7,0.00
2013-8-13,89.1,76.6,70.7,78.1,73.4,70.3,99,91,61,29.98,29.78,12,1,17,0.18
2013-8-14,75.7,70.1,59.2,71.1,65.3,57.9,99,86,65,30.10,29.82,7,2,8,0.02
2013-8-15,77.7,64.4,56.8,63.9,58.5,51.8,99,84,42,30.17,30.08,7,1,57,0.00
2013-8-16,71.2,63.6,55.9,65.7,60.5,55.6,99,90,71,30.19,30.10,4,1,4,0.00
2013-8-17,72.3,66.0,59.9,71.4,65.1,59.4,99,97,90,30.19,30.12,9,2,9,0.20
2013-8-18,77.9,71.0,65.8,71.8,68.0,64.2,99,91,73,30.21,30.11,7,2,10,0.05
2013-8-19,76.3,69.0,65.5,74.1,68.2,65.1,99,98,91,30.21,30.10,4,0,4,0.25
2013-8-20,84.9,72.3,63.3,75.0,69.4,63.0,99,92,67,30.19,30.11,2,0,3,0.00
2013-8-21,87.6,74.1,70.0,79.2,72.6,69.1,99,96,72,30.23,30.10,4,0,5,0.43
2013-8-22,88.7,76.8,68.4,76.8,71.3,68.0,99,85,53,30.14,29.98,5,1,7,0.00
2013-8-23,88.0,75.5,66.0,76.3,70.2,65.1,99,85,54,30.09,29.93,10,2,11,0.00
2013-8-24,83.5,71.1,62.4,65.7,62.6,55.4,97,77,40,30.31,30.09,8,2,8,0.09
2013-8-25,80.8,67.3,57.2,69.1,60.5,56.3,99,82,45,30.40,30.29,8,1,10,0.00
2013-8-26,84.0,66.5,53.2,67.1,58.4,52.9,99,79,37,30.33,30.11,5,1,5,0.00
2013-8-27,88.7,72.0,58.5,75.4,66.7,58.1,99,86,50,30.12,29.96,6,1,6,0.38
2013-8-28,79.7,73.4,65.5,77.5,72.2,65.1,99,96,87,29.99,29.85,4,0,4,0.00
2013-8-29,87.3,77.5,69.4,75.4,72.5,68.2,99,85,59,30.02,29.83,7,2,11,0.05
2013-8-30,88.3,72.7,-21.5,71.6,66.5,-32.3,99,84,44,30.07,29.94,98,2,98,0.28
2013-8-31,88.5,74.1,63.1,76.1,69.6,62.8,99,88,61,29.96,29.86,6,1,50,0.45
2013-9-1,89.8,74.5,66.7,78.8,71.7,66.4,99,92,58,29.90,29.78,5,1,17,0.73
2013-9-2,88.2,76.2,68.2,79.0,72.3,67.8,99,89,59,29.88,29.80,7,1,8,0.00
2013-9-3,89.4,76.4,68.2,78.8,71.5,67.8,99,87,51,29.94,29.80,4,0,7,3.02
2013-9-4,85.6,72.4,-18.2,71.6,66.7,-18.2,99,84,53,30.10,29.94,7,1,7,3.02
2013-9-5,87.8,71.3,61.0,69.6,61.4,48.6,99,77,26,30.10,30.02,8,1,8,0.38
2013-9-6,103.3,68.9,59.0,99.9,61.0,55.6,98,79,40,30.18,30.09,51,2,51,0.02
2013-9-7,83.5,66.8,-2.2,66.4,59.7,-2.2,99,81,26,30.14,29.98,8,1,8,3.02
2013-9-8,88.5,70.7,59.2,70.2,63.0,55.2,99,81,34,29.99,29.91,4,1,5,0.00
2013-9-9,87.1,73.4,63.0,80.1,68.0,62.6,99,85,53,30.16,29.99,49,1,49,0.00
2013-9-10,119.5,75.1,63.7,99.9,69.1,63.3,99,84,55,30.23,30.14,49,1,49,0.45
2013-9-11,89.4,74.0,-17.1,73.4,68.2,-23.4,99,83,33,30.21,30.07,49,1,49,1.51
2013-9-12,90.3,75.5,65.8,74.7,69.3,65.5,99,84,51,30.07,29.80,8,1,49,0.00
2013-9-13,84.4,72.4,59.5,68.9,62.1,49.1,99,75,31,29.91,29.76,10,2,10,0.00
2013-9-14,77.9,64.1,53.8,55.2,51.0,45.1,94,66,32,30.15,29.90,8,2,9,0.38
2013-9-15,81.5,64.3,14.2,64.0,55.4,14.2,99,75,39,30.24,30.11,5,1,8,6.28
2013-9-16,85.8,70.8,59.9,68.4,60.9,56.5,99,75,39,30.19,30.04,8,2,10,0.00
2013-9-17,77.5,64.8,52.7,59.2,53.3,45.7,97,70,33,30.33,30.19,8,1,9,0.00
2013-9-18,76.3,60.9,46.8,56.8,48.9,36.7,99,71,25,30.31,30.17,49,1,49,1.51
2013-9-19,76.6,67.5,52.9,63.3,60.6,46.2,96,80,52,30.19,30.08,4,0,4,0.57
2013-9-20,74.8,64.8,62.2,73.6,64.1,61.2,99,98,93,30.10,29.99,11,1,4,0.11
2013-9-21,75.6,68.9,65.1,73.2,68.3,64.8,99,98,90,29.96,29.73,5,1,7,4.11
2013-9-22,77.9,66.7,6.4,65.3,60.1,-16.6,99,82,33,29.90,29.72,9,2,13,0.17
2013-9-23,72.5,61.2,10.9,57.4,53.2,10.9,99,77,45,30.06,29.94,49,2,49,0.00
2013-9-24,74.1,62.7,54.5,62.1,57.5,53.6,97,84,60,29.97,29.94,2,0,3,0.00
2013-9-25,74.3,61.4,50.5,66.9,58.6,50.2,99,90,59,29.97,29.87,49,1,49,0.38
2013-9-26,77.7,64.0,52.9,64.2,57.0,48.7,99,82,37,30.05,29.88,8,1,9,0.00
2013-9-27,74.7,59.5,49.5,63.0,53.8,48.7,99,84,49,30.19,30.04,7,1,9,0.00
2013-9-28,72.9,58.2,48.2,58.8,52.2,47.5,99,83,48,30.26,30.17,11,1,11,0.00
2013-9-29,75.9,58.9,47.8,60.6,51.7,47.1,99,81,37,30.18,30.03,7,1,8,0.38
2013-9-30,77.5,59.7,48.2,63.7,53.4,47.7,99,83,41,30.10,29.99,5,1,6,0.00
2013-10-1,84.6,63.2,49.6,65.3,56.0,48.7,99,82,36,30.12,30.01,6,1,56,0.00
2013-10-2,85.1,65.9,52.0,67.5,56.4,51.6,99,77,32,30.13,30.04,8,1,8,0.00
2013-10-3,87.1,67.6,54.9,71.8,60.2,54.0,99,81,35,30.13,30.04,7,1,7,0.00
2013-10-4,87.6,69.2,56.5,69.4,61.3,56.1,99,80,38,30.13,30.04,6,1,8,0.00
2013-10-5,90.1,70.1,57.4,73.2,62.7,56.8,99,81,34,30.11,30.02,4,1,7,0.00
2013-10-6,85.1,70.2,57.9,72.7,65.3,57.6,99,86,56,30.06,29.93,7,1,8,0.00
2013-10-7,72.1,69.4,62.6,71.8,68.9,59.7,99,98,90,30.00,29.84,6,1,9,1.23
2013-10-8,64.2,60.1,57.7,59.5,50.5,45.9,89,71,57,30.21,30.00,11,3,17,0.01
2013-10-9,63.5,58.0,54.1,56.7,53.0,49.6,99,84,74,30.20,30.09,15,5,15,0.11
2013-10-10,61.7,57.2,53.4,60.1,56.4,26.6,99,98,34,30.09,29.93,13,4,13,0.02
2013-10-11,67.6,62.0,58.6,63.5,60.6,58.3,99,96,84,29.97,29.90,8,2,8,0.04
2013-10-12,69.6,64.1,61.0,66.7,63.2,60.4,99,97,89,30.09,29.95,7,2,8,0.01
2013-10-13,66.9,63.3,61.2,65.5,62.6,60.8,99,98,93,30.21,30.08,10,3,11,0.04
2013-10-14,65.5,61.4,55.2,63.0,60.3,54.9,99,96,88,30.25,30.18,8,3,14,0.02
2013-10-15,73.8,61.3,49.5,62.2,56.5,49.3,99,86,57,30.21,30.05,8,2,8,0.00
2013-10-16,71.8,64.6,57.7,65.1,61.7,57.4,99,91,72,30.06,29.95,4,1,4,0.00
2013-10-17,74.5,65.5,58.3,68.5,63.0,57.9,99,92,66,29.97,29.83,4,1,6,0.00
2013-10-18,70.5,61.3,52.7,65.8,52.7,45.0,99,76,42,30.05,29.87,10,2,12,0.01
2013-10-19,68.2,60.0,54.0,65.8,59.3,53.6,99,98,92,29.98,29.81,3,0,4,0.01
2013-10-20,63.5,50.7,39.4,53.4,43.8,37.0,99,81,39,30.12,29.90,8,1,10,0.01
2013-10-21,68.0,49.1,35.2,56.3,42.9,35.1,99,83,34,30.16,29.99,4,1,5,0.00
2013-10-22,69.1,56.8,48.2,60.3,53.8,47.3,99,91,58,30.00,29.79,4,0,4,0.00
2013-10-23,65.7,57.1,44.6,58.3,46.7,31.1,99,73,29,29.99,29.68,12,3,17,0.04
2013-10-24,59.2,45.4,33.1,39.6,33.4,28.4,96,67,32,30.17,29.99,11,2,11,0.00
2013-10-25,55.8,43.7,31.8,38.7,30.7,21.9,92,64,28,30.35,30.17,11,2,13,0.00
2013-10-26,59.0,41.4,26.6,40.3,31.1,25.7,98,72,30,30.35,30.05,10,1,10,0.00
2013-10-27,67.1,50.0,36.5,45.0,37.9,30.4,98,69,27,30.12,30.03,7,1,8,0.00
2013-10-28,69.6,51.8,38.3,53.4,45.8,37.0,99,83,40,30.25,30.12,4,1,6,0.00
2013-10-29,71.6,58.1,48.2,59.2,52.4,46.6,99,84,50,30.33,30.24,4,1,5,0.00
2013-10-30,71.6,57.5,48.0,61.3,54.0,46.6,99,89,64,30.29,30.15,4,0,5,0.00
2013-10-31,74.8,61.0,50.0,64.6,55.7,49.5,99,85,58,30.19,29.91,6,1,10,0.00
2013-11-1,72.1,67.4,62.8,70.0,65.7,62.4,99,94,79,29.90,29.64,8,2,11,0.21
2013-11-2,71.2,59.1,47.7,62.4,51.1,37.9,99,80,32,29.93,29.69,11,2,11,0.07
2013-11-3,63.9,47.0,34.3,44.6,37.7,32.4,99,75,32,30.37,29.93,12,2,14,0.00
2013-11-4,54.7,41.0,31.5,38.3,32.0,26.4,99,75,35,30.56,30.37,10,2,11,0.00
2013-11-5,58.5,47.4,33.4,48.2,40.5,31.8,95,78,60,30.54,30.43,7,2,9,0.00
2013-11-6,71.4,53.9,41.5,54.7,48.0,40.6,99,83,50,30.43,30.10,5,1,6,0.00
2013-11-7,70.2,57.5,41.4,65.3,49.2,29.1,99,77,44,30.11,29.91,16,2,16,0.01
2013-11-8,57.6,42.1,29.5,35.8,27.0,18.7,91,61,23,30.32,30.10,11,2,14,0.00
2013-11-9,58.1,40.6,26.1,39.9,29.7,24.8,98,71,28,30.37,30.17,4,1,8,0.00
2013-11-10,71.8,48.6,31.3,45.5,31.7,21.9,99,62,16,30.24,30.04,12,2,17,0.00
2013-11-11,61.0,41.8,27.3,38.8,27.3,20.5,93,63,21,30.35,30.12,8,1,8,0.00
2013-11-12,60.3,39.6,29.7,47.5,30.6,13.3,98,74,36,30.42,30.03,18,3,18,0.01
2013-11-13,45.5,31.8,21.0,23.0,15.7,9.1,86,56,23,30.52,30.41,11,3,15,0.00
2013-11-14,59.5,35.4,18.5,34.2,19.5,7.7,95,63,13,30.45,27.30,6,2,59,0.00
2013-11-15,61.7,42.9,23.5,44.1,32.4,21.2,94,70,34,30.34,30.20,5,1,5,0.00
2013-11-16,60.1,53.6,46.8,56.8,52.1,44.1,99,95,88,30.27,30.21,4,1,5,0.02
2013-11-17,68.5,59.7,53.6,64.2,58.0,53.2,99,95,77,30.22,29.88,4,1,5,0.15
2013-11-18,66.4,65.6,64.6,66.0,65.3,64.2,99,99,99,29.88,29.80,7,2,10,0.00
2013-11-19,56.7,45.5,32.9,32.7,27.3,21.9,87,54,26,30.32,30.09,11,3,11,0.00
2013-11-20,52.5,41.6,32.4,36.7,29.8,25.9,90,65,39,30.45,30.31,9,2,13,0.00
2013-11-21,57.4,47.4,33.6,45.3,40.4,31.5,96,77,60,30.50,30.38,8,2,8,0.00
2013-11-22,68.9,56.7,42.3,58.8,51.7,40.1,96,84,69,30.39,30.07,4,1,8,0.00
2013-11-23,61.0,53.8,36.0,59.7,38.8,13.8,99,62,20,30.17,30.03,12,3,15,0.00
2013-11-24,41.7,31.3,19.8,20.5,4.9,-10.7,76,36,13,30.54,30.17,21,5,22,0.00
2013-11-25,42.4,27.9,14.4,20.8,10.6,-1.5,90,56,16,30.58,30.37,4,1,7,0.00
2013-11-26,62.4,42.3,35.4,62.1,35.9,16.2,99,80,43,30.31,29.59,11,2,11,0.77
2013-11-27,46.2,39.0,28.9,46.0,35.5,16.9,99,88,58,30.14,29.49,18,5,18,0.31
2013-11-28,44.1,29.8,18.9,22.5,18.5,11.8,93,66,29,30.47,30.14,8,2,11,0.00
2013-11-29,51.1,31.1,19.6,32.9,22.2,18.3,98,75,31,30.64,30.45,9,2,11,0.00
2013-11-30,47.3,31.6,22.5,30.6,25.5,21.4,97,81,48,30.64,30.36,8,2,9,0.00
2013-12-1,58.6,35.1,22.3,39.7,26.7,21.4,99,77,27,30.36,30.02,5,1,10,0.00
2013-12-2,60.3,39.8,27.0,47.5,34.6,26.1,99,84,47,30.01,29.81,4,1,4,0.00
2013-12-3,57.4,42.7,28.8,48.0,38.7,28.6,99,87,59,29.99,29.86,4,1,5,0.04
2013-12-4,62.6,53.5,47.1,58.3,52.3,45.7,99,96,82,30.08,29.97,4,0,4,0.00
2013-12-5,68.7,60.4,51.6,67.1,59.9,51.3,99,99,89,30.12,30.02,4,1,8,0.05
2013-12-6,77.7,68.2,62.4,67.3,63.4,61.5,99,86,61,30.06,29.95,10,2,22,0.01
2013-12-7,67.5,47.2,42.1,65.1,42.8,32.5,99,85,68,30.45,29.97,14,4,14,0.22
2013-12-8,42.1,35.2,32.2,33.8,31.3,26.8,99,87,62,30.46,30.28,9,3,11,0.26
2013-12-9,42.8,37.0,33.6,42.6,36.8,33.4,99,99,99,30.28,30.06,3,1,4,0.13
2013-12-10,46.8,40.0,25.5,45.3,37.5,24.3,99,91,70,30.31,29.92,11,3,11,0.14
2013-12-11,49.5,31.5,19.2,31.5,24.0,18.0,99,79,29,30.44,30.27,7,1,8,0.00
2013-12-12,44.2,32.5,20.7,30.2,19.1,5.4,98,63,21,30.41,30.25,11,2,11,0.00
2013-12-13,51.6,31.4,17.8,30.6,20.8,12.7,96,72,21,30.38,30.25,8,1,10,0.00
2013-12-14,45.5,38.6,32.9,43.0,36.9,29.7,99,94,70,30.29,29.78,8,2,10,0.57
2013-12-15,53.4,40.8,27.1,46.8,34.5,25.3,99,81,43,30.05,29.69,15,3,15,0.02
2013-12-16,55.2,35.6,23.4,38.5,28.7,22.8,99,80,35,30.16,30.05,5,1,7,0.00
2013-12-17,60.4,41.0,25.7,42.6,33.4,25.2,99,78,40,30.11,29.85,17,2,21,0.00
2013-12-18,48.7,35.9,24.4,34.7,21.5,11.1,95,61,23,30.27,30.02,12,3,13,0.00
2013-12-19,62.8,39.3,22.1,33.6,24.1,11.1,97,64,13,30.30,30.19,8,1,8,0.00
2013-12-20,68.2,49.0,32.4,52.2,41.1,28.6,93,75,54,30.23,30.09,6,2,11,0.00
2013-12-21,73.6,57.2,40.6,66.4,53.0,40.3,99,87,60,30.14,30.01,9,2,9,0.00
2013-12-22,77.2,68.9,61.2,67.6,64.6,59.0,99,87,63,30.09,29.99,9,2,15,0.15
2013-12-23,65.3,59.1,46.2,64.9,57.5,37.0,99,95,68,30.15,29.99,13,3,17,0.73
2013-12-24,47.7,40.3,28.6,36.9,25.4,10.4,76,57,38,30.45,30.13,12,5,16,0.00
2013-12-25,39.4,27.1,18.3,16.7,12.3,4.1,89,57,23,30.54,30.38,7,2,7,0.00
2013-12-26,52.9,32.0,18.3,30.2,23.0,15.6,95,75,27,30.39,30.22,6,2,8,0.00
2013-12-27,52.9,31.6,19.4,35.1,21.1,11.5,98,73,19,30.45,30.35,4,1,7,0.00
2013-12-28,57.6,37.6,20.3,41.2,27.9,19.0,97,74,23,30.39,30.15,4,1,4,0.00
2013-12-29,54.1,44.4,34.9,52.9,43.7,34.7,99,97,89,30.15,29.69,11,2,17,1.12
2013-12-30,55.0,41.5,30.6,49.1,36.7,30.4,99,85,58,30.13,29.91,7,1,8,0.00
2013-12-31,50.7,38.6,26.4,39.4,28.6,16.9,98,72,26,30.34,30.10,12,2,14,0.02
2014-1-1,50.9,34.7,25.7,34.3,27.1,21.6,98,78,32,30.41,30.14,5,1,5,0.00
2014-1-2,46.9,39.6,30.4,43.2,37.2,28.6,99,92,71,30.14,29.57,17,1,17,0.30